createdAt,value
2023-03-18T00:00:29.499Z,100987.50
2023-03-18T00:02:57.875Z,100989.16
2023-03-18T00:05:26.232Z,100990.03
2023-03-18T00:07:53.738Z,100983.97
2023-03-18T00:10:21.139Z,100980.56
2023-03-18T00:12:48.263Z,100984.78
2023-03-18T00:15:16.284Z,100973.72
2023-03-18T00:17:44.109Z,100966.03
2023-03-18T00:20:13.091Z,100969.56
2023-03-18T00:22:41.328Z,100964.50
2023-03-18T00:25:11.030Z,100962.81
2023-03-18T00:27:38.766Z,100958.50
2023-03-18T00:30:07.300Z,100948.34
2023-03-18T00:32:34.821Z,100948.34
2023-03-18T00:35:03.962Z,100957.69
2023-03-18T00:37:31.830Z,100955.91
2023-03-18T00:40:06.554Z,100954.09
2023-03-18T00:42:40.122Z,100951.63
2023-03-18T00:45:10.589Z,100954.75
2023-03-18T00:47:38.579Z,100952.09
2023-03-18T00:50:08.366Z,100961.41
2023-03-18T00:52:36.618Z,100956.38
2023-03-18T00:55:04.613Z,100958.94
2023-03-18T00:57:31.801Z,100956.22
2023-03-18T00:59:59.646Z,100953.91
2023-03-18T01:02:28.982Z,100951.41
2023-03-18T01:04:57.961Z,100941.00
2023-03-18T01:07:25.871Z,100939.31
2023-03-18T01:09:52.970Z,100934.91
2023-03-18T01:12:20.318Z,100937.44
2023-03-18T01:14:48.162Z,100935.09
2023-03-18T01:17:15.588Z,100933.41
2023-03-18T01:19:43.506Z,100936.00
2023-03-18T01:22:10.966Z,100933.44
2023-03-18T01:24:39.443Z,100935.25
2023-03-18T01:27:07.666Z,100930.22
2023-03-18T01:29:35.616Z,100920.94
2023-03-18T01:32:03.296Z,100916.59
2023-03-18T01:34:30.913Z,100920.03
2023-03-18T01:36:58.786Z,100915.81
2023-03-18T01:39:26.358Z,100913.31
2023-03-18T01:41:53.462Z,100908.09
2023-03-18T01:44:22.891Z,100905.75
2023-03-18T01:46:51.782Z,100908.41
2023-03-18T01:49:24.187Z,100908.41
2023-03-18T01:51:58.781Z,100903.31
2023-03-18T01:54:27.497Z,100901.59
2023-03-18T01:56:55.193Z,100908.41
2023-03-18T01:59:24.391Z,100904.19
2023-03-18T02:02:12.506Z,100903.44
2023-03-18T02:04:43.308Z,100906.78
2023-03-18T02:07:23.228Z,100905.91
2023-03-18T02:09:52.523Z,100905.13
2023-03-18T02:12:24.652Z,100915.37
2023-03-18T02:14:53.674Z,100908.56
2023-03-18T02:17:27.158Z,100913.66
2023-03-18T02:20:10.497Z,100906.81
2023-03-18T02:22:44.904Z,100912.84
2023-03-18T02:25:32.048Z,100906.94
2023-03-18T02:28:01.840Z,100909.47
2023-03-18T02:30:35.960Z,100905.13
2023-03-18T02:33:04.146Z,100909.41
2023-03-18T02:35:32.269Z,100895.88
2023-03-18T02:37:59.942Z,100900.16
2023-03-18T02:40:29.803Z,100904.34
2023-03-18T02:43:44.030Z,100901.78
2023-03-18T02:46:19.765Z,100906.06
2023-03-18T02:48:49.010Z,100903.56
2023-03-18T02:51:17.208Z,100905.31
2023-03-18T02:53:45.001Z,100906.12
2023-03-18T02:56:12.811Z,100906.97
2023-03-18T02:58:41.991Z,100895.84
2023-03-18T03:01:10.022Z,100905.28
2023-03-18T03:03:37.976Z,100901.87
2023-03-18T03:06:06.519Z,100905.28
2023-03-18T03:08:34.041Z,100906.12
2023-03-18T03:11:01.725Z,100895.06
2023-03-18T03:13:29.434Z,100901.06
2023-03-18T03:15:57.277Z,100902.78
2023-03-18T03:18:25.462Z,100908.84
2023-03-18T03:20:53.410Z,100906.38
2023-03-18T03:23:21.132Z,100900.38
2023-03-18T03:25:49.397Z,100895.28
2023-03-18T03:28:17.097Z,100905.53
2023-03-18T03:30:45.403Z,100908.13
2023-03-18T03:33:13.548Z,100908.94
2023-03-18T03:35:41.733Z,100906.34
2023-03-18T03:38:09.450Z,100907.28
2023-03-18T03:40:37.278Z,100916.69
2023-03-18T03:43:05.606Z,100918.41
2023-03-18T03:45:33.671Z,100923.41
2023-03-18T03:48:01.518Z,100922.59
2023-03-18T03:50:29.243Z,100920.91
2023-03-18T03:52:56.532Z,100915.75
2023-03-18T03:55:24.696Z,100927.72
2023-03-18T03:57:52.177Z,100920.16
2023-03-18T04:00:21.532Z,100920.94
2023-03-18T04:02:50.852Z,100919.22
2023-03-18T04:05:20.752Z,100919.13
2023-03-18T04:07:48.338Z,100916.56
2023-03-18T04:10:18.221Z,100925.97
2023-03-18T04:12:46.368Z,100924.31
2023-03-18T04:15:15.543Z,100930.22
2023-03-18T04:17:43.785Z,100921.75
2023-03-18T04:20:12.438Z,100920.88
2023-03-18T04:22:39.779Z,100926.91
2023-03-18T04:25:11.104Z,100929.44
2023-03-18T04:27:39.950Z,100927.59
2023-03-18T04:30:09.300Z,100934.44
2023-03-18T04:32:37.016Z,100934.44
2023-03-18T04:35:04.681Z,100937.88
2023-03-18T04:37:37.050Z,100933.59
2023-03-18T04:40:06.363Z,100930.19
2023-03-18T04:42:33.995Z,100936.16
2023-03-18T04:45:01.996Z,100936.97
2023-03-18T04:47:29.550Z,100944.59
2023-03-18T04:49:57.151Z,100942.91
2023-03-18T04:52:24.546Z,100948.84
2023-03-18T04:54:51.882Z,100949.69
2023-03-18T04:57:19.708Z,100947.09
2023-03-18T04:59:47.875Z,100946.28
2023-03-18T05:02:15.619Z,100946.16
2023-03-18T05:04:43.927Z,100949.63
2023-03-18T05:07:15.859Z,100946.25
2023-03-18T05:09:44.454Z,100951.38
2023-03-18T05:12:14.908Z,100952.16
2023-03-18T05:14:43.206Z,100953.91
2023-03-18T05:17:15.777Z,100964.00
2023-03-18T05:19:45.016Z,100968.28
2023-03-18T05:22:13.661Z,100965.59
2023-03-18T05:24:43.181Z,100969.63
2023-03-18T05:27:10.925Z,100960.97
2023-03-18T05:29:40.363Z,100972.81
2023-03-18T05:32:09.669Z,100967.53
2023-03-18T05:34:38.953Z,100965.78
2023-03-18T05:37:08.603Z,100968.25
2023-03-18T05:39:37.077Z,100973.28
2023-03-18T05:42:06.454Z,100978.28
2023-03-18T05:44:35.159Z,100978.91
2023-03-18T05:47:02.794Z,100973.72
2023-03-18T05:49:31.182Z,100979.59
2023-03-18T05:51:59.392Z,100980.16
2023-03-18T05:54:27.111Z,100983.47
2023-03-18T05:56:54.800Z,100992.87
2023-03-18T05:59:24.051Z,100984.22
2023-03-18T06:01:51.662Z,100994.31
2023-03-18T06:04:19.793Z,101002.03
2023-03-18T06:06:48.294Z,100992.41
2023-03-18T06:09:16.597Z,100990.47
2023-03-18T06:11:45.561Z,100986.53
2023-03-18T06:14:13.090Z,100982.53
2023-03-18T06:16:41.762Z,100986.53
2023-03-18T06:19:10.918Z,100991.22
2023-03-18T06:21:41.534Z,100993.66
2023-03-18T06:24:09.694Z,100991.47
2023-03-18T06:26:38.200Z,100991.03
2023-03-18T06:29:05.519Z,100995.88
2023-03-18T06:31:33.898Z,100997.47
2023-03-18T06:34:01.726Z,100997.22
2023-03-18T06:36:34.445Z,100997.94
2023-03-18T06:39:02.428Z,101001.91
2023-03-18T06:41:30.629Z,101010.44
2023-03-18T06:43:58.539Z,101011.44
2023-03-18T06:46:29.522Z,101014.75
2023-03-18T06:48:57.041Z,101012.50
2023-03-18T06:51:24.735Z,101014.34
2023-03-18T06:53:52.159Z,101017.13
2023-03-18T06:56:19.448Z,101009.41
2023-03-18T06:58:47.325Z,101026.06
2023-03-18T07:01:14.971Z,101025.81
2023-03-18T07:03:42.599Z,101022.50
2023-03-18T07:06:10.367Z,101022.28
2023-03-18T07:08:38.879Z,101014.78
2023-03-18T07:11:07.257Z,101016.16
2023-03-18T07:13:34.828Z,101012.78
2023-03-18T07:16:03.836Z,101014.59
2023-03-18T07:18:31.439Z,101016.00
2023-03-18T07:20:58.732Z,101015.63
2023-03-18T07:23:27.173Z,101015.38
2023-03-18T07:25:57.495Z,101014.00
2023-03-18T07:28:24.794Z,101017.38
2023-03-18T07:30:54.189Z,101013.31
2023-03-18T07:33:21.554Z,101020.44
2023-03-18T07:35:48.784Z,101016.72
2023-03-18T07:38:18.190Z,101013.09
2023-03-18T07:40:45.366Z,101024.09
2023-03-18T07:43:12.491Z,101026.94
2023-03-18T07:45:39.955Z,101030.47
2023-03-18T07:48:07.644Z,101030.81
2023-03-18T07:50:35.201Z,101042.69
2023-03-18T07:53:03.483Z,101031.94
2023-03-18T07:55:30.834Z,101036.22
2023-03-18T07:57:58.558Z,101030.59
2023-03-18T08:00:26.092Z,101028.50
2023-03-18T08:02:53.490Z,101029.53
2023-03-18T08:05:22.075Z,101034.78
2023-03-18T08:07:49.311Z,101031.00
2023-03-18T08:10:17.353Z,101024.72
2023-03-18T08:12:52.481Z,101027.00
2023-03-18T08:15:21.965Z,101019.94
2023-03-18T08:17:50.627Z,101030.63
2023-03-18T08:20:18.174Z,101018.66
2023-03-18T08:22:46.083Z,101024.81
2023-03-18T08:25:13.542Z,101025.09
2023-03-18T08:27:40.888Z,101024.44
2023-03-18T08:30:09.664Z,101018.38
2023-03-18T08:32:37.499Z,101018.75
2023-03-18T08:35:05.239Z,101015.84
2023-03-18T08:37:32.971Z,101022.69
2023-03-18T08:40:00.282Z,101016.78
2023-03-18T08:42:27.902Z,101005.91
2023-03-18T08:44:55.505Z,101005.56
2023-03-18T08:47:25.046Z,101008.16
2023-03-18T08:49:52.292Z,101000.34
2023-03-18T08:52:19.900Z,101011.19
2023-03-18T08:54:47.897Z,101003.94
2023-03-18T08:57:15.985Z,101004.97
2023-03-18T08:59:43.473Z,101008.09
2023-03-18T09:02:18.372Z,101008.38
2023-03-18T09:04:46.026Z,101006.19
2023-03-18T09:07:13.536Z,101003.84
2023-03-18T09:09:43.913Z,101005.25
2023-03-18T09:12:12.679Z,101005.59
2023-03-18T09:14:44.010Z,101005.97
2023-03-18T09:17:11.697Z,100996.19
2023-03-18T09:19:38.936Z,100998.63
2023-03-18T09:22:06.166Z,100994.44
2023-03-18T09:24:34.975Z,101001.25
2023-03-18T09:27:02.260Z,100992.91
2023-03-18T09:29:29.616Z,100991.31
2023-03-18T09:32:00.649Z,100996.69
2023-03-18T09:34:27.816Z,100983.38
2023-03-18T09:36:54.915Z,100982.22
2023-03-18T09:39:22.481Z,100986.69
2023-03-18T09:42:29.320Z,100981.78
2023-03-18T09:45:02.663Z,100978.12
2023-03-18T09:47:46.435Z,100976.34
2023-03-18T09:50:35.340Z,100977.53
2023-03-18T09:53:40.271Z,100973.88
2023-03-18T09:56:13.542Z,100979.31
2023-03-18T09:58:50.148Z,100979.34
2023-03-18T10:01:18.556Z,100977.03
2023-03-18T10:04:15.062Z,100974.44
2023-03-18T10:06:44.256Z,100974.59
2023-03-18T10:09:39.589Z,100973.50
2023-03-18T10:12:12.358Z,100969.75
2023-03-18T10:14:44.277Z,100967.53
2023-03-18T10:17:35.569Z,100963.72
2023-03-18T10:20:06.231Z,100967.34
2023-03-18T10:22:50.071Z,100962.69
2023-03-18T10:25:36.807Z,100970.16
2023-03-18T10:28:41.377Z,100957.09
2023-03-18T10:31:21.132Z,100957.94
2023-03-18T10:33:55.647Z,100950.56
2023-03-18T10:36:25.966Z,100959.50
2023-03-18T10:38:54.887Z,100952.25
2023-03-18T10:41:28.957Z,100957.38
2023-03-18T10:43:57.267Z,100958.78
2023-03-18T10:46:27.064Z,100956.25
2023-03-18T10:49:19.147Z,100955.97
2023-03-18T10:51:51.067Z,100954.31
2023-03-18T10:54:28.719Z,100946.56
2023-03-18T10:56:56.628Z,100938.84
2023-03-18T10:59:25.807Z,100941.41
2023-03-18T11:02:07.551Z,100935.69
2023-03-18T11:05:17.061Z,100928.78
2023-03-18T11:08:06.491Z,100922.00
2023-03-18T11:10:37.080Z,100926.09
2023-03-18T11:13:04.331Z,100925.37
2023-03-18T11:15:45.194Z,100910.09
2023-03-18T11:18:19.666Z,100913.91
2023-03-18T11:20:49.300Z,100919.25
2023-03-18T11:23:20.577Z,100916.66
2023-03-18T11:25:48.980Z,100910.31
2023-03-18T11:28:23.356Z,100901.81
2023-03-18T11:30:55.213Z,100891.25
2023-03-18T11:33:30.524Z,100886.69
2023-03-18T11:35:58.881Z,100887.13
2023-03-18T11:38:33.368Z,100885.88
2023-03-18T11:41:17.011Z,100880.22
2023-03-18T11:44:02.061Z,100880.63
2023-03-18T11:46:36.161Z,100875.84
2023-03-18T11:49:04.145Z,100880.44
2023-03-18T11:51:56.541Z,100873.66
2023-03-18T11:54:29.882Z,100873.00
2023-03-18T11:57:05.793Z,100874.91
2023-03-18T12:00:05.127Z,100869.97
2023-03-18T12:02:59.982Z,100861.63
2023-03-18T12:05:52.430Z,100862.66
2023-03-18T12:08:41.582Z,100867.47
2023-03-18T12:11:13.848Z,100861.72
2023-03-18T12:14:06.359Z,100852.81
2023-03-18T12:16:52.378Z,100856.28
2023-03-18T12:19:32.070Z,100847.25
2023-03-18T12:22:26.705Z,100854.06
2023-03-18T12:25:30.511Z,100860.34
2023-03-18T12:28:11.209Z,100840.00
2023-03-18T12:30:47.874Z,100846.69
2023-03-18T12:33:35.797Z,100843.25
2023-03-18T12:36:12.496Z,100835.62
2023-03-18T12:39:05.777Z,100830.06
2023-03-18T12:41:58.462Z,100832.03
2023-03-18T12:44:57.761Z,100829.41
2023-03-18T12:47:30.344Z,100834.09
2023-03-18T12:50:00.338Z,100843.97
2023-03-18T12:52:27.524Z,100840.19
2023-03-18T12:55:05.798Z,100831.88
2023-03-18T12:57:36.186Z,100839.00
2023-03-18T13:00:10.532Z,100846.84
2023-03-18T13:02:54.351Z,100843.59
2023-03-18T13:05:31.696Z,100837.00
2023-03-18T13:08:21.181Z,100832.00
2023-03-18T13:10:54.918Z,100834.13
2023-03-18T13:13:22.303Z,100831.72
2023-03-18T13:15:55.196Z,100832.78
2023-03-18T13:18:27.287Z,100834.47
2023-03-18T13:20:58.652Z,100831.56
2023-03-18T13:23:44.352Z,100823.47
2023-03-18T13:26:17.225Z,100828.72
2023-03-18T13:29:06.064Z,100830.97
2023-03-18T13:31:42.691Z,100829.81
2023-03-18T13:34:32.582Z,100826.53
2023-03-18T13:37:12.402Z,100829.75
2023-03-18T13:40:22.886Z,100819.75
2023-03-18T13:42:51.368Z,100815.25
2023-03-18T13:45:25.621Z,100810.53
2023-03-18T13:47:59.117Z,100809.25
2023-03-18T13:50:34.673Z,100807.25
2023-03-18T13:53:03.763Z,100802.81
2023-03-18T13:55:33.043Z,100798.09
2023-03-18T13:58:19.200Z,100792.41
2023-03-18T14:00:55.575Z,100792.06
2023-03-18T14:03:51.686Z,100795.75
2023-03-18T14:06:23.757Z,100797.62
2023-03-18T14:08:52.703Z,100786.31
2023-03-18T14:11:20.320Z,100793.16
2023-03-18T14:13:47.458Z,100787.00
2023-03-18T14:16:20.869Z,100781.53
2023-03-18T14:19:10.157Z,100774.78
2023-03-18T14:21:48.628Z,100778.66
2023-03-18T14:24:22.237Z,100770.78
2023-03-18T14:26:58.814Z,100767.00
2023-03-18T14:29:37.511Z,100768.66
2023-03-18T14:32:08.520Z,100760.69
2023-03-18T14:34:54.750Z,100761.53
2023-03-18T14:37:31.590Z,100759.03
2023-03-18T14:40:13.979Z,100764.53
2023-03-18T14:43:00.964Z,100769.31
2023-03-18T14:45:31.380Z,100762.84
2023-03-18T14:48:01.608Z,100750.66
2023-03-18T14:50:29.522Z,100761.84
2023-03-18T14:53:12.565Z,100754.63
2023-03-18T14:55:40.452Z,100743.47
2023-03-18T14:58:22.327Z,100753.84
2023-03-18T15:01:12.354Z,100750.50
2023-03-18T15:03:43.577Z,100743.00
2023-03-18T15:06:26.900Z,100749.28
2023-03-18T15:09:04.730Z,100745.00
2023-03-18T15:11:39.581Z,100747.25
2023-03-18T15:14:31.027Z,100747.97
2023-03-18T15:17:04.718Z,100742.34
2023-03-18T15:19:32.643Z,100740.09
2023-03-18T15:22:05.795Z,100737.75
2023-03-18T15:24:33.485Z,100733.97
2023-03-18T15:27:10.881Z,100735.03
2023-03-18T15:29:51.022Z,100730.91
2023-03-18T15:32:26.483Z,100735.94
2023-03-18T15:34:58.128Z,100736.97
2023-03-18T15:37:42.752Z,100735.69
2023-03-18T15:40:17.009Z,100738.44
2023-03-18T15:42:45.411Z,100745.47
2023-03-18T15:45:19.259Z,100747.44
2023-03-18T15:47:47.480Z,100743.78
2023-03-18T15:50:26.293Z,100747.06
2023-03-18T15:53:19.766Z,100751.16
2023-03-18T15:55:52.931Z,100753.16
2023-03-18T15:58:29.325Z,100750.03
2023-03-18T16:00:57.267Z,100760.66
2023-03-18T16:03:27.162Z,100763.09
2023-03-18T16:05:55.225Z,100768.66
2023-03-18T16:08:22.926Z,100763.84
2023-03-18T16:10:53.137Z,100766.78
2023-03-18T16:13:33.322Z,100766.56
2023-03-18T16:16:01.108Z,100769.37
2023-03-18T16:18:28.282Z,100775.38
2023-03-18T16:20:57.299Z,100769.91
2023-03-18T16:23:24.732Z,100760.28
2023-03-18T16:25:53.221Z,100766.22
2023-03-18T16:28:23.126Z,100767.72
2023-03-18T16:30:53.204Z,100768.09
2023-03-18T16:33:21.052Z,100768.09
2023-03-18T16:35:55.300Z,100774.88
2023-03-18T16:38:23.008Z,100774.19
2023-03-18T16:40:50.662Z,100778.81
2023-03-18T16:43:19.796Z,100778.16
2023-03-18T16:45:48.481Z,100772.56
2023-03-18T16:48:18.833Z,100780.59
2023-03-18T16:50:48.412Z,100783.81
2023-03-18T16:53:18.329Z,100781.00
2023-03-18T16:55:47.426Z,100778.66
2023-03-18T16:58:22.488Z,100785.87
2023-03-18T17:00:51.169Z,100790.66
2023-03-18T17:03:19.178Z,100788.00
2023-03-18T17:05:50.496Z,100789.87
2023-03-18T17:08:19.516Z,100784.72
2023-03-18T17:10:49.348Z,100787.72
2023-03-18T17:13:26.004Z,100794.19
2023-03-18T17:15:53.586Z,100793.59
2023-03-18T17:18:22.824Z,100794.59
2023-03-18T17:20:50.637Z,100795.59
2023-03-18T17:23:20.526Z,100800.66
2023-03-18T17:25:50.967Z,100801.81
2023-03-18T17:28:23.725Z,100797.28
2023-03-18T17:30:51.356Z,100794.97
2023-03-18T17:33:31.102Z,100799.91
2023-03-18T17:36:00.349Z,100811.25
2023-03-18T17:38:28.785Z,100806.50
2023-03-18T17:40:56.691Z,100797.66
2023-03-18T17:43:36.929Z,100805.78
2023-03-18T17:46:06.172Z,100805.63
2023-03-18T17:48:35.223Z,100811.19
2023-03-18T17:51:10.773Z,100806.91
2023-03-18T17:53:49.468Z,100803.63
2023-03-18T17:56:18.377Z,100808.81
2023-03-18T17:58:47.753Z,100801.41
2023-03-18T18:01:16.426Z,100806.59
2023-03-18T18:03:44.217Z,100809.41
2023-03-18T18:06:22.340Z,100815.78
2023-03-18T18:08:50.123Z,100809.06
2023-03-18T18:11:32.232Z,100822.16
2023-03-18T18:14:13.033Z,100820.75
2023-03-18T18:16:40.662Z,100823.25
2023-03-18T18:19:10.366Z,100820.81
2023-03-18T18:21:37.700Z,100826.16
2023-03-18T18:24:14.575Z,100820.37
2023-03-18T18:26:41.959Z,100821.09
2023-03-18T18:29:14.458Z,100823.03
2023-03-18T18:31:42.042Z,100829.31
2023-03-18T18:34:09.401Z,100825.44
2023-03-18T18:36:36.892Z,100831.16
2023-03-18T18:39:05.429Z,100833.97
2023-03-18T18:41:33.459Z,100829.78
2023-03-18T18:44:00.622Z,100831.75
2023-03-18T18:46:28.900Z,100827.03
2023-03-18T18:48:56.615Z,100828.72
2023-03-18T18:51:24.196Z,100837.81
2023-03-18T18:53:53.695Z,100836.13
2023-03-18T18:56:34.248Z,100831.31
2023-03-18T18:59:05.192Z,100824.53
2023-03-18T19:01:32.328Z,100819.50
2023-03-18T19:03:59.429Z,100834.59
2023-03-18T19:06:29.257Z,100833.94
2023-03-18T19:08:58.558Z,100835.97
2023-03-18T19:11:26.660Z,100832.78
2023-03-18T19:13:55.352Z,100838.62
2023-03-18T19:16:36.248Z,100836.19
2023-03-18T19:19:03.681Z,100831.03
2023-03-18T19:21:31.230Z,100842.47
2023-03-18T19:23:58.662Z,100846.38
2023-03-18T19:26:26.085Z,100838.13
2023-03-18T19:28:59.006Z,100838.13
2023-03-18T19:31:30.650Z,100841.75
2023-03-18T19:33:59.734Z,100848.59
2023-03-18T19:36:32.658Z,100847.69
2023-03-18T19:39:01.475Z,100845.03
2023-03-18T19:41:29.491Z,100845.94
2023-03-18T19:44:04.089Z,100853.06
2023-03-18T19:46:37.097Z,100858.38
2023-03-18T19:49:33.221Z,100854.16
2023-03-18T19:52:16.954Z,100863.78
2023-03-18T19:54:44.476Z,100865.69
2023-03-18T19:57:32.518Z,100862.19
2023-03-18T20:00:01.095Z,100864.84
2023-03-18T20:02:33.917Z,100866.53
2023-03-18T20:05:03.768Z,100869.84
2023-03-18T20:07:35.338Z,100875.91
2023-03-18T20:10:02.791Z,100875.19
2023-03-18T20:12:42.973Z,100880.72
2023-03-18T20:15:22.415Z,100871.31
2023-03-18T20:17:51.000Z,100881.03
2023-03-18T20:20:19.611Z,100877.66
2023-03-18T20:22:52.384Z,100874.25
2023-03-18T20:25:24.381Z,100882.28
2023-03-18T20:27:53.575Z,100880.50
2023-03-18T20:30:27.780Z,100881.09
2023-03-18T20:32:55.568Z,100875.16
2023-03-18T20:35:28.514Z,100878.75
2023-03-18T20:37:57.463Z,100876.25
2023-03-18T20:40:29.273Z,100876.19
2023-03-18T20:42:56.881Z,100874.66
2023-03-18T20:45:24.943Z,100878.88
2023-03-18T20:47:52.504Z,100880.75
2023-03-18T20:50:21.966Z,100873.81
2023-03-18T20:52:49.391Z,100883.78
2023-03-18T20:55:31.789Z,100877.66
2023-03-18T20:58:00.587Z,100874.97
2023-03-18T21:00:31.156Z,100875.56
2023-03-18T21:03:02.368Z,100870.94
2023-03-18T21:05:29.844Z,100867.44
2023-03-18T21:07:57.065Z,100877.59
2023-03-18T21:10:26.218Z,100874.19
2023-03-18T21:12:54.060Z,100870.16
2023-03-18T21:15:24.191Z,100871.25
2023-03-18T21:17:51.560Z,100867.97
2023-03-18T21:20:22.954Z,100874.37
2023-03-18T21:22:50.526Z,100873.56
2023-03-18T21:25:22.994Z,100873.44
2023-03-18T21:27:50.906Z,100874.44
2023-03-18T21:30:21.510Z,100875.62
2023-03-18T21:32:50.567Z,100878.94
2023-03-18T21:35:26.125Z,100875.81
2023-03-18T21:37:53.627Z,100879.56
2023-03-18T21:40:23.591Z,100874.63
2023-03-18T21:42:51.481Z,100876.63
2023-03-18T21:45:21.334Z,100875.13
2023-03-18T21:47:48.836Z,100871.97
2023-03-18T21:50:26.256Z,100877.28
2023-03-18T21:52:54.538Z,100878.63
2023-03-18T21:55:22.553Z,100876.16
2023-03-18T21:57:49.776Z,100872.75
2023-03-18T22:00:20.097Z,100875.53
2023-03-18T22:02:48.051Z,100878.94
2023-03-18T22:05:20.933Z,100874.84
2023-03-18T22:07:50.302Z,100873.16
2023-03-18T22:10:22.917Z,100875.91
2023-03-18T22:12:50.767Z,100877.84
2023-03-18T22:15:23.716Z,100880.22
2023-03-18T22:17:51.820Z,100877.09
2023-03-18T22:20:19.059Z,100883.09
2023-03-18T22:22:47.392Z,100879.62
2023-03-18T22:25:24.477Z,100883.00
2023-03-18T22:27:53.840Z,100882.47
2023-03-18T22:30:21.601Z,100882.47
2023-03-18T22:32:48.853Z,100876.66
2023-03-18T22:35:21.394Z,100887.06
2023-03-18T22:37:49.748Z,100882.94
2023-03-18T22:40:22.281Z,100880.53
2023-03-18T22:42:52.195Z,100884.78
2023-03-18T22:45:22.842Z,100891.66
2023-03-18T22:47:51.836Z,100879.06
2023-03-18T22:50:19.674Z,100884.34
2023-03-18T22:52:48.657Z,100887.03
2023-03-18T22:55:22.472Z,100879.41
2023-03-18T22:57:50.711Z,100890.53
2023-03-18T23:00:35.570Z,100890.75
2023-03-18T23:03:03.174Z,100893.44
2023-03-18T23:05:30.741Z,100885.72
2023-03-18T23:07:58.348Z,100894.37
2023-03-18T23:10:25.625Z,100892.75
2023-03-18T23:12:53.249Z,100889.34
2023-03-18T23:15:22.636Z,100887.84
2023-03-18T23:17:50.055Z,100887.72
2023-03-18T23:20:18.403Z,100898.06
2023-03-18T23:22:45.831Z,100895.56
2023-03-18T23:25:17.740Z,100902.47
2023-03-18T23:27:45.468Z,100905.13
2023-03-18T23:30:13.667Z,100913.84
2023-03-18T23:32:41.414Z,100908.75
2023-03-18T23:35:09.708Z,100915.69
2023-03-18T23:37:36.914Z,100912.22
2023-03-18T23:40:06.122Z,100910.69
2023-03-18T23:42:33.577Z,100921.87
2023-03-18T23:45:00.877Z,100914.34
2023-03-18T23:47:28.134Z,100914.41
2023-03-18T23:49:55.684Z,100910.94
2023-03-18T23:52:23.091Z,100908.19
2023-03-18T23:54:50.269Z,100906.59
2023-03-18T23:57:17.809Z,100896.50
2023-03-18T23:59:45.029Z,100901.56
